createdAt,value
2022-10-13T00:00:30.252Z,92.27
2022-10-13T00:01:30.508Z,92.17
2022-10-13T00:02:31.609Z,91.96
2022-10-13T00:03:30.209Z,91.86
2022-10-13T00:04:30.360Z,91.86
2022-10-13T00:05:30.574Z,91.86
2022-10-13T00:06:31.848Z,91.96
2022-10-13T00:07:30.967Z,91.96
2022-10-13T00:08:31.175Z,91.96
2022-10-13T00:09:30.340Z,92.17
2022-10-13T00:10:31.261Z,92.17
2022-10-13T00:11:31.486Z,91.96
2022-10-13T00:12:31.729Z,92.07
2022-10-13T00:13:31.880Z,92.27
2022-10-13T00:14:32.064Z,92.58
2022-10-13T00:15:31.179Z,92.47
2022-10-13T00:16:30.319Z,92.47
2022-10-13T00:17:30.483Z,92.58
2022-10-13T00:18:29.599Z,92.58
2022-10-13T00:19:31.377Z,92.83
2022-10-13T00:20:30.228Z,92.93
2022-10-13T00:21:44.938Z,93.03
2022-10-13T00:22:31.599Z,93.03
2022-10-13T00:23:29.723Z,93.13
2022-10-13T00:24:31.961Z,93.13
2022-10-13T00:25:31.074Z,93.03
2022-10-13T00:26:30.221Z,93.03
2022-10-13T00:27:30.400Z,93.13
2022-10-13T00:28:31.669Z,93.24
2022-10-13T00:29:29.711Z,93.24
2022-10-13T00:30:30.957Z,93.13
2022-10-13T00:31:31.103Z,93.03
2022-10-13T00:32:29.160Z,93.13
2022-10-13T00:33:30.387Z,93.13
2022-10-13T00:34:30.586Z,93.13
2022-10-13T00:35:29.740Z,92.99
2022-10-13T00:36:29.910Z,92.99
2022-10-13T00:37:30.091Z,92.88
2022-10-13T00:38:29.251Z,92.88
2022-10-13T00:39:29.402Z,92.78
2022-10-13T00:40:29.623Z,92.68
2022-10-13T00:41:29.192Z,92.68
2022-10-13T00:42:29.376Z,92.58
2022-10-13T00:43:29.554Z,92.58
2022-10-13T00:44:29.752Z,92.58
2022-10-13T00:45:29.971Z,92.68
2022-10-13T00:46:29.145Z,92.68
2022-10-13T00:47:30.275Z,92.68
2022-10-13T00:48:29.469Z,92.58
2022-10-13T00:49:31.739Z,92.68
2022-10-13T00:50:32.438Z,92.68
2022-10-13T00:51:30.061Z,92.68
2022-10-13T00:52:29.186Z,92.68
2022-10-13T00:53:30.412Z,92.58
2022-10-13T00:54:30.612Z,92.58
2022-10-13T00:55:30.771Z,92.68
2022-10-13T00:56:29.944Z,92.68
2022-10-13T00:57:30.168Z,92.68
2022-10-13T00:58:30.254Z,92.58
2022-10-13T00:59:30.425Z,92.58
2022-10-13T01:00:30.678Z,92.47
2022-10-13T01:01:30.865Z,92.47
2022-10-13T01:02:28.893Z,92.37
2022-10-13T01:03:31.183Z,92.27
2022-10-13T01:04:29.283Z,92.27
2022-10-13T01:05:29.478Z,92.27
2022-10-13T01:06:29.670Z,92.27
2022-10-13T01:07:29.911Z,92.17
2022-10-13T01:08:29.060Z,92.17
2022-10-13T01:09:28.994Z,92.07
2022-10-13T01:10:29.180Z,92.02
2022-10-13T01:11:29.375Z,92.02
2022-10-13T01:12:30.723Z,91.92
2022-10-13T01:13:30.775Z,91.92
2022-10-13T01:14:29.943Z,91.82
2022-10-13T01:15:29.114Z,91.72
2022-10-13T01:16:29.274Z,91.72
2022-10-13T01:17:29.466Z,91.61
2022-10-13T01:18:30.795Z,91.52
2022-10-13T01:19:29.845Z,91.52
2022-10-13T01:20:29.028Z,91.52
2022-10-13T01:21:31.206Z,91.61
2022-10-13T01:22:29.411Z,91.61
2022-10-13T01:23:28.537Z,91.52
2022-10-13T01:24:30.218Z,91.52
2022-10-13T01:25:29.045Z,91.41
2022-10-13T01:26:29.946Z,91.41
2022-10-13T01:27:29.086Z,91.31
2022-10-13T01:28:29.234Z,91.31
2022-10-13T01:29:29.387Z,91.20
2022-10-13T01:30:30.576Z,91.31
2022-10-13T01:31:30.695Z,91.20
2022-10-13T01:32:28.807Z,91.20
2022-10-13T01:33:28.966Z,91.11
2022-10-13T01:34:29.140Z,91.00
2022-10-13T01:35:29.294Z,90.96
2022-10-13T01:36:28.477Z,91.00
2022-10-13T01:37:28.587Z,90.86
2022-10-13T01:38:28.753Z,90.90
2022-10-13T01:39:28.926Z,90.90
2022-10-13T01:40:29.090Z,90.90
2022-10-13T01:41:29.264Z,90.90
2022-10-13T01:42:29.457Z,91.11
2022-10-13T01:43:29.652Z,91.11
2022-10-13T01:44:28.776Z,91.11
2022-10-13T01:45:28.959Z,91.00
2022-10-13T01:46:29.168Z,91.00
2022-10-13T01:47:30.376Z,90.96
2022-10-13T01:48:32.546Z,90.90
2022-10-13T01:49:28.628Z,90.86
2022-10-13T01:50:28.796Z,90.86
2022-10-13T01:51:30.119Z,90.66
2022-10-13T01:52:30.167Z,90.55
2022-10-13T01:53:29.314Z,90.55
2022-10-13T01:54:28.437Z,90.55
2022-10-13T01:55:29.643Z,90.66
2022-10-13T01:56:29.820Z,90.66
2022-10-13T01:57:30.062Z,90.66
2022-10-13T01:58:30.166Z,90.66
2022-10-13T01:59:28.290Z,90.66
2022-10-13T02:00:30.574Z,90.66
2022-10-13T02:01:28.656Z,90.66
2022-10-13T02:02:28.115Z,90.66
2022-10-13T02:03:28.797Z,90.55
2022-10-13T02:04:28.910Z,90.55
2022-10-13T02:05:29.069Z,90.55
2022-10-13T02:06:29.216Z,90.66
2022-10-13T02:07:29.390Z,90.66
2022-10-13T02:08:28.498Z,90.80
2022-10-13T02:09:29.858Z,90.75
2022-10-13T02:10:27.911Z,90.66
2022-10-13T02:11:30.120Z,90.66
2022-10-13T02:12:29.843Z,90.70
2022-10-13T02:13:27.950Z,90.59
2022-10-13T02:14:30.147Z,90.66
2022-10-13T02:15:30.288Z,90.66
2022-10-13T02:16:28.360Z,90.66
2022-10-13T02:17:30.508Z,90.66
2022-10-13T02:18:28.631Z,90.66
2022-10-13T02:19:35.028Z,90.55
2022-10-13T02:20:28.950Z,90.70
2022-10-13T02:21:28.052Z,90.75
2022-10-13T02:22:31.305Z,90.80
2022-10-13T02:23:28.358Z,90.66
2022-10-13T02:24:28.534Z,90.66
2022-10-13T02:25:29.778Z,90.55
2022-10-13T02:26:28.856Z,90.55
2022-10-13T02:27:27.994Z,90.45
2022-10-13T02:28:28.217Z,90.35
2022-10-13T02:29:28.302Z,90.35
2022-10-13T02:30:27.770Z,90.45
2022-10-13T02:31:27.965Z,90.35
2022-10-13T02:32:28.131Z,90.35
2022-10-13T02:33:28.274Z,90.35
2022-10-13T02:34:28.453Z,90.35
2022-10-13T02:35:27.730Z,90.35
2022-10-13T02:36:27.900Z,90.25
2022-10-13T02:37:28.143Z,90.25
2022-10-13T02:38:28.280Z,90.14
2022-10-13T02:39:29.482Z,90.14
2022-10-13T02:40:27.614Z,89.94
2022-10-13T02:41:27.763Z,89.84
2022-10-13T02:42:29.056Z,89.88
2022-10-13T02:43:28.136Z,89.98
2022-10-13T02:44:28.324Z,90.19
2022-10-13T02:45:27.496Z,90.49
2022-10-13T02:46:27.688Z,90.59
2022-10-13T02:47:28.963Z,90.59
2022-10-13T02:48:28.133Z,90.70
2022-10-13T02:49:28.296Z,90.59
2022-10-13T02:50:27.506Z,90.59
2022-10-13T02:51:27.721Z,90.59
2022-10-13T02:52:27.914Z,90.70
2022-10-13T02:53:28.125Z,90.70
2022-10-13T02:54:28.338Z,90.80
2022-10-13T02:55:28.517Z,90.70
2022-10-13T02:56:27.660Z,90.80
2022-10-13T02:57:28.881Z,91.00
2022-10-13T02:58:29.131Z,91.00
2022-10-13T02:59:29.248Z,91.00
2022-10-13T03:00:28.495Z,91.05
2022-10-13T03:01:27.568Z,90.90
2022-10-13T03:02:27.752Z,90.94
2022-10-13T03:03:27.933Z,90.90
2022-10-13T03:04:28.177Z,91.00
2022-10-13T03:05:27.244Z,91.00
2022-10-13T03:06:27.433Z,90.90
2022-10-13T03:07:27.642Z,90.80
2022-10-13T03:08:27.815Z,90.80
2022-10-13T03:09:28.022Z,90.80
2022-10-13T03:10:27.224Z,90.70
2022-10-13T03:11:27.442Z,90.59
2022-10-13T03:12:28.646Z,90.59
2022-10-13T03:13:28.820Z,90.59
2022-10-13T03:14:27.954Z,90.59
2022-10-13T03:15:27.172Z,90.59
2022-10-13T03:16:28.382Z,90.59
2022-10-13T03:17:27.497Z,90.49
2022-10-13T03:18:28.675Z,90.49
2022-10-13T03:19:28.828Z,90.49
2022-10-13T03:20:27.946Z,90.49
2022-10-13T03:21:27.059Z,90.49
2022-10-13T03:22:28.360Z,90.49
2022-10-13T03:23:28.415Z,90.49
2022-10-13T03:24:27.561Z,90.49
2022-10-13T03:25:27.708Z,90.49
2022-10-13T03:26:27.867Z,90.39
2022-10-13T03:27:26.999Z,90.29
2022-10-13T03:28:27.328Z,90.29
2022-10-13T03:29:29.422Z,90.19
2022-10-13T03:30:27.573Z,90.19
2022-10-13T03:31:27.688Z,90.29
2022-10-13T03:32:26.818Z,90.29
2022-10-13T03:33:26.993Z,90.29
2022-10-13T03:34:28.324Z,90.29
2022-10-13T03:35:27.356Z,90.39
2022-10-13T03:36:28.582Z,90.39
2022-10-13T03:37:27.705Z,90.29
2022-10-13T03:38:26.854Z,90.29
2022-10-13T03:39:27.024Z,90.29
2022-10-13T03:40:28.447Z,90.29
2022-10-13T03:41:27.559Z,90.19
2022-10-13T03:42:26.721Z,90.08
2022-10-13T03:43:26.883Z,90.04
2022-10-13T03:44:27.048Z,90.04
2022-10-13T03:45:27.269Z,89.98
2022-10-13T03:46:27.489Z,89.78
2022-10-13T03:47:27.627Z,89.78
2022-10-13T03:48:26.780Z,89.78
2022-10-13T03:49:26.999Z,89.88
2022-10-13T03:50:27.169Z,89.88
2022-10-13T03:51:27.367Z,89.78
2022-10-13T03:52:26.585Z,89.98
2022-10-13T03:53:26.719Z,90.12
2022-10-13T03:54:26.928Z,90.23
2022-10-13T03:55:28.205Z,90.23
2022-10-13T03:56:27.303Z,90.33
2022-10-13T03:57:27.580Z,90.43
2022-10-13T03:58:26.641Z,90.33
2022-10-13T03:59:26.798Z,90.43
2022-10-13T04:00:26.999Z,90.33
2022-10-13T04:01:27.271Z,90.33
2022-10-13T04:02:26.549Z,90.23
2022-10-13T04:03:26.757Z,90.12
2022-10-13T04:04:26.914Z,89.92
2022-10-13T04:05:27.089Z,89.82
2022-10-13T04:06:27.267Z,89.61
2022-10-13T04:07:26.432Z,89.51
2022-10-13T04:08:26.588Z,89.41
2022-10-13T04:09:26.813Z,89.41
2022-10-13T04:10:26.957Z,89.41
2022-10-13T04:11:27.141Z,89.31
2022-10-13T04:12:27.637Z,89.31
2022-10-13T04:13:26.479Z,89.31
2022-10-13T04:14:27.595Z,89.20
2022-10-13T04:15:27.122Z,89.20
2022-10-13T04:16:27.039Z,89.35
2022-10-13T04:17:27.203Z,89.35
2022-10-13T04:18:26.339Z,89.35
2022-10-13T04:19:26.536Z,89.35
2022-10-13T04:20:26.718Z,89.35
2022-10-13T04:21:26.881Z,89.35
2022-10-13T04:22:27.058Z,89.45
2022-10-13T04:23:26.152Z,89.56
2022-10-13T04:24:26.471Z,89.76
2022-10-13T04:25:26.516Z,89.86
2022-10-13T04:26:26.709Z,89.97
2022-10-13T04:27:26.876Z,89.97
2022-10-13T04:28:27.023Z,90.00
2022-10-13T04:29:27.198Z,90.11
2022-10-13T04:30:26.351Z,90.31
2022-10-13T04:31:26.509Z,90.41
2022-10-13T04:32:26.681Z,90.41
2022-10-13T04:33:27.041Z,90.31
2022-10-13T04:34:27.062Z,90.31
2022-10-13T04:35:26.212Z,90.21
2022-10-13T04:36:26.402Z,90.21
2022-10-13T04:37:26.563Z,90.21
2022-10-13T04:38:26.742Z,90.41
2022-10-13T04:39:26.934Z,90.62
2022-10-13T04:40:27.093Z,90.82
2022-10-13T04:41:26.215Z,90.82
2022-10-13T04:42:26.394Z,90.82
2022-10-13T04:43:26.591Z,90.82
2022-10-13T04:44:26.735Z,90.72
2022-10-13T04:45:25.903Z,90.72
2022-10-13T04:46:26.065Z,90.77
2022-10-13T04:47:26.278Z,90.86
2022-10-13T04:48:27.382Z,90.97
2022-10-13T04:49:26.623Z,91.27
2022-10-13T04:50:26.855Z,91.27
2022-10-13T04:51:25.935Z,91.38
2022-10-13T04:52:27.174Z,91.48
2022-10-13T04:53:26.325Z,91.63
2022-10-13T04:54:26.511Z,91.73
2022-10-13T04:55:26.693Z,91.93
2022-10-13T04:56:25.883Z,92.24
2022-10-13T04:57:26.005Z,92.44
2022-10-13T04:58:26.173Z,92.65
2022-10-13T04:59:26.355Z,92.75
2022-10-13T05:00:26.585Z,92.75
2022-10-13T05:01:25.680Z,92.75
2022-10-13T05:02:25.879Z,92.75
2022-10-13T05:03:26.010Z,92.85
2022-10-13T05:04:26.276Z,92.90
2022-10-13T05:05:26.438Z,93.10
2022-10-13T05:06:25.576Z,93.10
2022-10-13T05:07:25.765Z,93.06
2022-10-13T05:08:27.045Z,93.10
2022-10-13T05:09:26.180Z,93.06
2022-10-13T05:10:28.399Z,93.16
2022-10-13T05:11:26.562Z,93.20
2022-10-13T05:12:25.726Z,93.30
2022-10-13T05:13:25.942Z,93.30
2022-10-13T05:14:26.167Z,93.41
2022-10-13T05:15:26.404Z,93.41
2022-10-13T05:16:26.570Z,93.51
2022-10-13T05:17:25.739Z,93.51
2022-10-13T05:18:25.927Z,93.51
2022-10-13T05:19:26.151Z,93.62
2022-10-13T05:20:26.537Z,93.71
2022-10-13T05:21:25.507Z,93.71
2022-10-13T05:22:27.797Z,93.71
2022-10-13T05:23:26.923Z,93.82
2022-10-13T05:24:26.067Z,93.82
2022-10-13T05:25:30.258Z,93.92
2022-10-13T05:26:26.478Z,93.82
2022-10-13T05:27:25.708Z,93.82
2022-10-13T05:28:26.896Z,93.71
2022-10-13T05:29:33.265Z,93.71
2022-10-13T05:30:26.376Z,93.82
2022-10-13T05:31:25.387Z,93.82
2022-10-13T05:32:25.669Z,93.71
2022-10-13T05:33:26.837Z,93.71
2022-10-13T05:34:26.121Z,93.82
2022-10-13T05:35:26.195Z,93.71
2022-10-13T05:36:25.351Z,93.62
2022-10-13T05:37:25.578Z,93.62
2022-10-13T05:38:26.285Z,93.62
2022-10-13T05:39:25.945Z,93.71
2022-10-13T05:40:26.109Z,93.71
2022-10-13T05:41:25.248Z,93.82
2022-10-13T05:42:26.463Z,93.92
2022-10-13T05:43:25.629Z,94.02
2022-10-13T05:44:25.872Z,94.02
2022-10-13T05:45:25.994Z,94.02
2022-10-13T05:46:25.203Z,94.02
2022-10-13T05:47:25.423Z,94.12
2022-10-13T05:48:25.730Z,94.02
2022-10-13T05:49:25.909Z,94.02
2022-10-13T05:50:26.108Z,94.02
2022-10-13T05:51:26.335Z,94.12
2022-10-13T05:52:27.532Z,94.23
2022-10-13T05:53:26.783Z,94.23
2022-10-13T05:54:25.994Z,94.23
2022-10-13T05:55:25.181Z,94.43
2022-10-13T05:56:25.379Z,94.54
2022-10-13T05:57:27.683Z,94.58
2022-10-13T05:58:25.876Z,94.58
2022-10-13T05:59:27.493Z,94.78
2022-10-13T06:00:26.489Z,94.78
2022-10-13T06:01:26.545Z,94.89
2022-10-13T06:02:26.731Z,95.09
2022-10-13T06:03:24.941Z,95.20
2022-10-13T06:04:26.192Z,95.29
2022-10-13T06:05:26.442Z,95.40
2022-10-13T06:06:30.478Z,95.50
2022-10-13T06:07:26.892Z,95.70
2022-10-13T06:08:25.086Z,95.81
2022-10-13T06:09:26.249Z,95.81
2022-10-13T06:10:26.719Z,95.81
2022-10-13T06:11:25.785Z,96.01
2022-10-13T06:12:24.977Z,95.91
2022-10-13T06:13:25.203Z,95.91
2022-10-13T06:14:26.476Z,95.87
2022-10-13T06:15:28.116Z,95.76
2022-10-13T06:16:25.874Z,95.76
2022-10-13T06:17:25.116Z,95.76
2022-10-13T06:18:25.300Z,95.66
2022-10-13T06:19:25.518Z,95.66
2022-10-13T06:20:25.322Z,95.66
2022-10-13T06:21:25.961Z,95.56
2022-10-13T06:22:26.093Z,95.56
2022-10-13T06:23:25.355Z,95.66
2022-10-13T06:24:30.761Z,95.56
2022-10-13T06:25:24.723Z,95.56
2022-10-13T06:26:24.961Z,95.46
2022-10-13T06:27:25.177Z,95.46
2022-10-13T06:28:25.472Z,95.46
2022-10-13T06:29:25.593Z,95.46
2022-10-13T06:30:24.850Z,95.56
2022-10-13T06:31:24.999Z,95.66
2022-10-13T06:32:28.221Z,95.76
2022-10-13T06:33:24.368Z,95.87
2022-10-13T06:34:25.641Z,95.97
2022-10-13T06:35:24.855Z,95.97
2022-10-13T06:36:26.088Z,95.97
2022-10-13T06:37:27.440Z,95.97
2022-10-13T06:38:24.476Z,96.07
2022-10-13T06:39:25.684Z,96.07
2022-10-13T06:40:24.832Z,96.07
2022-10-13T06:41:26.055Z,96.07
2022-10-13T06:42:26.234Z,96.07
2022-10-13T06:43:30.888Z,96.07
2022-10-13T06:44:25.505Z,96.17
2022-10-13T06:45:24.755Z,96.17
2022-10-13T06:46:24.917Z,96.17
2022-10-13T06:47:25.075Z,96.23
2022-10-13T06:48:25.279Z,96.33
2022-10-13T06:49:25.468Z,96.33
2022-10-13T06:50:25.694Z,96.44
2022-10-13T06:51:24.802Z,96.33
2022-10-13T06:52:25.023Z,96.44
2022-10-13T06:53:26.236Z,96.44
2022-10-13T06:54:26.424Z,96.54
2022-10-13T06:55:25.590Z,96.44
2022-10-13T06:56:26.533Z,96.44
2022-10-13T06:57:24.897Z,96.44
2022-10-13T06:58:24.151Z,96.44
2022-10-13T06:59:25.303Z,96.39
2022-10-13T07:00:25.677Z,96.39
2022-10-13T07:01:24.605Z,96.39
2022-10-13T07:02:24.876Z,96.29
2022-10-13T07:03:25.988Z,96.29
2022-10-13T07:04:24.096Z,96.19
2022-10-13T07:05:25.319Z,95.98
2022-10-13T07:06:25.517Z,95.88
2022-10-13T07:07:24.667Z,95.88
2022-10-13T07:08:24.915Z,95.78
2022-10-13T07:09:24.013Z,95.78
2022-10-13T07:10:25.263Z,95.84
2022-10-13T07:11:25.451Z,95.84
2022-10-13T07:12:24.600Z,95.84
2022-10-13T07:13:26.050Z,95.84
2022-10-13T07:14:23.957Z,95.84
2022-10-13T07:15:25.215Z,95.84
2022-10-13T07:16:26.484Z,95.84
2022-10-13T07:17:24.568Z,95.84
2022-10-13T07:18:25.823Z,95.94
2022-10-13T07:19:25.051Z,95.84
2022-10-13T07:20:24.139Z,95.69
2022-10-13T07:21:26.405Z,95.69
2022-10-13T07:22:26.528Z,95.59
2022-10-13T07:23:25.735Z,95.59
2022-10-13T07:24:23.841Z,95.54
2022-10-13T07:25:26.582Z,95.23
2022-10-13T07:26:26.307Z,94.93
2022-10-13T07:27:24.842Z,94.52
2022-10-13T07:28:25.679Z,94.42
2022-10-13T07:29:25.834Z,94.37
2022-10-13T07:30:26.011Z,94.07
2022-10-13T07:31:26.248Z,93.96
2022-10-13T07:32:26.372Z,93.55
2022-10-13T07:33:24.486Z,93.66
2022-10-13T07:34:25.689Z,93.55
2022-10-13T07:35:28.239Z,93.55
2022-10-13T07:36:24.972Z,93.35
2022-10-13T07:37:26.304Z,93.15
2022-10-13T07:38:25.400Z,93.10
2022-10-13T07:39:23.508Z,92.80
2022-10-13T07:40:23.679Z,92.80
2022-10-13T07:41:23.870Z,92.80
2022-10-13T07:42:24.054Z,92.80
2022-10-13T07:43:25.444Z,92.69
2022-10-13T07:44:24.448Z,92.90
2022-10-13T07:45:23.609Z,93.00
2022-10-13T07:46:24.810Z,92.59
2022-10-13T07:47:25.005Z,92.24
2022-10-13T07:48:25.074Z,92.24
2022-10-13T07:49:25.503Z,92.35
2022-10-13T07:50:23.422Z,92.45
2022-10-13T07:51:24.610Z,92.55
2022-10-13T07:52:25.802Z,92.55
2022-10-13T07:53:23.940Z,92.55
2022-10-13T07:54:27.317Z,92.55
2022-10-13T07:55:24.413Z,92.55
2022-10-13T07:56:26.506Z,92.45
2022-10-13T07:57:23.634Z,92.35
2022-10-13T07:58:23.809Z,92.45
2022-10-13T07:59:23.953Z,92.65
2022-10-13T08:00:24.172Z,92.65
2022-10-13T08:01:25.548Z,92.69
2022-10-13T08:02:23.455Z,92.59
2022-10-13T08:03:23.692Z,92.69
2022-10-13T08:04:23.907Z,92.76
2022-10-13T08:05:23.990Z,92.96
2022-10-13T08:06:25.178Z,92.96
2022-10-13T08:07:25.381Z,92.86
2022-10-13T08:08:24.416Z,92.76
2022-10-13T08:09:23.607Z,92.76
2022-10-13T08:10:24.873Z,92.86
2022-10-13T08:11:24.992Z,92.65
2022-10-13T08:12:23.124Z,92.65
2022-10-13T08:13:24.373Z,92.55
2022-10-13T08:14:23.445Z,92.50
2022-10-13T08:15:23.628Z,91.89
2022-10-13T08:16:24.855Z,91.79
2022-10-13T08:17:25.011Z,91.69
2022-10-13T08:18:23.108Z,91.89
2022-10-13T08:19:24.352Z,92.10
2022-10-13T08:20:26.283Z,91.69
2022-10-13T08:21:57.649Z,91.75
2022-10-13T08:22:28.234Z,91.75
2022-10-13T08:23:54.118Z,91.85
2022-10-13T08:24:23.172Z,91.55
2022-10-13T08:25:23.445Z,91.55
2022-10-13T08:26:23.533Z,91.35
2022-10-13T08:27:32.747Z,91.14
2022-10-13T08:28:23.850Z,91.24
2022-10-13T08:29:24.749Z,91.24
2022-10-13T08:30:24.359Z,91.35
2022-10-13T08:31:23.658Z,91.40
2022-10-13T08:32:23.598Z,91.50
2022-10-13T08:33:23.787Z,91.61
2022-10-13T08:34:23.954Z,91.61
2022-10-13T08:35:24.213Z,91.40
2022-10-13T08:36:23.298Z,91.71
2022-10-13T08:37:24.439Z,91.71
2022-10-13T08:38:23.587Z,91.61
2022-10-13T08:39:23.796Z,91.50
2022-10-13T08:40:23.940Z,91.40
2022-10-13T08:41:23.077Z,91.50
2022-10-13T08:42:24.389Z,91.40
2022-10-13T08:43:24.508Z,91.30
2022-10-13T08:46:23.978Z,90.14
2022-10-13T08:47:23.138Z,90.64
2022-10-13T08:48:23.433Z,90.64
2022-10-13T08:49:23.539Z,90.64
2022-10-13T08:50:22.657Z,89.69
2022-10-13T08:51:22.943Z,89.38
2022-10-13T08:52:23.301Z,88.77
2022-10-13T08:53:23.109Z,88.46
2022-10-13T08:54:23.291Z,88.67
2022-10-13T08:55:24.426Z,88.36
2022-10-13T08:56:24.592Z,88.42
2022-10-13T08:57:24.763Z,88.32
2022-10-13T08:58:24.835Z,88.63
2022-10-13T08:59:24.090Z,88.42
2022-10-13T09:00:24.334Z,88.32
2022-10-13T09:01:24.387Z,88.02
2022-10-13T09:02:24.507Z,87.81
2022-10-13T09:03:23.633Z,87.87
2022-10-13T09:04:22.750Z,87.57
2022-10-13T09:05:24.128Z,87.87
2022-10-13T09:06:24.094Z,88.59
2022-10-13T09:07:23.423Z,88.28
2022-10-13T09:08:24.406Z,87.57
2022-10-13T09:09:24.533Z,87.26
2022-10-13T09:10:24.792Z,86.96
2022-10-13T09:11:24.841Z,86.82
2022-10-13T09:12:23.976Z,86.82
2022-10-13T09:13:24.110Z,87.12
2022-10-13T09:14:23.205Z,87.43
2022-10-13T09:15:24.436Z,87.12
2022-10-13T09:16:24.570Z,86.92
2022-10-13T09:17:23.808Z,86.61
2022-10-13T09:18:22.793Z,86.98
2022-10-13T09:19:30.240Z,87.29
2022-10-13T09:20:23.183Z,86.47
2022-10-13T09:21:23.280Z,86.74
2022-10-13T09:22:23.462Z,86.53
2022-10-13T09:23:24.531Z,86.49
2022-10-13T09:24:22.684Z,86.19
2022-10-13T09:25:23.854Z,85.68
2022-10-13T09:26:23.976Z,85.78
2022-10-13T09:27:23.108Z,86.19
2022-10-13T09:28:22.304Z,85.24
2022-10-13T09:29:22.334Z,85.03
2022-10-13T09:30:23.515Z,85.74
2022-10-13T09:31:23.663Z,83.81
2022-10-13T09:32:24.164Z,84.42
2022-10-13T09:33:22.981Z,85.24
2022-10-13T09:34:23.180Z,85.84
2022-10-13T09:35:23.294Z,86.10
2022-10-13T09:36:23.442Z,86.21
2022-10-13T09:37:23.657Z,85.70
2022-10-13T09:38:22.738Z,86.21
2022-10-13T09:39:22.904Z,86.31
2022-10-13T09:40:21.976Z,86.41
2022-10-13T09:41:23.156Z,86.61
2022-10-13T09:42:23.464Z,86.61
2022-10-13T09:43:23.445Z,86.91
2022-10-13T09:44:25.614Z,85.39
2022-10-13T09:45:23.748Z,84.28
2022-10-13T09:46:23.876Z,83.87
2022-10-13T09:47:21.918Z,85.30
2022-10-13T09:48:22.065Z,84.89
2022-10-13T09:49:22.196Z,85.19
2022-10-13T09:50:22.923Z,82.45
2022-10-13T09:51:22.486Z,83.47
2022-10-13T09:52:24.621Z,83.17
2022-10-13T09:53:21.712Z,84.18
2022-10-13T09:54:22.833Z,83.17
2022-10-13T09:55:22.034Z,82.76
2022-10-13T09:56:22.246Z,82.45
2022-10-13T09:57:24.237Z,82.25
2022-10-13T09:58:22.420Z,83.06
2022-10-13T09:59:23.589Z,83.43
2022-10-13T10:00:22.676Z,82.62
2022-10-13T10:01:21.772Z,82.01
2022-10-13T10:02:25.046Z,81.74
2022-10-13T10:03:22.096Z,82.72
2022-10-13T10:04:22.347Z,82.82
2022-10-13T10:05:23.392Z,82.21
2022-10-13T10:06:26.872Z,82.31
2022-10-13T10:07:23.962Z,82.21
2022-10-13T10:08:33.296Z,81.10
2022-10-13T10:09:22.885Z,81.81
2022-10-13T10:10:22.041Z,80.79
2022-10-13T10:11:23.371Z,82.21
2022-10-13T10:12:27.800Z,82.21
2022-10-13T10:13:22.561Z,81.40
2022-10-13T10:14:21.633Z,81.20
2022-10-13T10:15:24.893Z,81.81
2022-10-13T10:16:21.913Z,81.44
2022-10-13T10:17:24.076Z,81.54
2022-10-13T10:18:22.222Z,83.06
2022-10-13T10:19:22.615Z,83.23
2022-10-13T10:20:22.556Z,81.85
2022-10-13T10:21:22.686Z,82.11
2022-10-13T10:22:22.876Z,82.62
2022-10-13T10:23:21.934Z,81.81
2022-10-13T10:24:22.091Z,81.50
2022-10-13T10:25:22.428Z,80.90
2022-10-13T10:26:25.809Z,81.60
2022-10-13T10:27:22.484Z,81.60
2022-10-13T10:28:22.725Z,80.99
2022-10-13T10:29:23.804Z,81.40
2022-10-13T10:30:22.992Z,82.62
2022-10-13T10:31:23.077Z,83.23
2022-10-13T10:32:24.178Z,83.12
2022-10-13T10:33:22.967Z,82.11
2022-10-13T10:34:23.524Z,82.52
2022-10-13T10:35:21.515Z,82.58
2022-10-13T10:36:23.764Z,81.87
2022-10-13T10:37:25.310Z,81.06
2022-10-13T10:38:21.906Z,80.45
2022-10-13T10:39:22.020Z,81.67
2022-10-13T10:40:22.128Z,81.46
2022-10-13T10:41:22.266Z,82.58
2022-10-13T10:42:21.842Z,82.38
2022-10-13T10:43:21.440Z,81.87
2022-10-13T10:44:21.561Z,81.93
2022-10-13T10:45:21.702Z,81.63
2022-10-13T10:46:21.846Z,80.41
2022-10-13T10:47:23.454Z,81.23
2022-10-13T10:48:22.159Z,81.23
2022-10-13T10:49:22.182Z,80.92
2022-10-13T10:50:21.344Z,81.09
2022-10-13T10:51:23.557Z,80.98
2022-10-13T10:52:21.601Z,81.69
2022-10-13T10:53:22.758Z,81.18
2022-10-13T10:54:21.855Z,80.68
2022-10-13T10:55:20.932Z,80.58
2022-10-13T10:56:21.066Z,80.07
2022-10-13T10:57:22.532Z,80.98
2022-10-13T10:58:22.390Z,80.58
2022-10-13T10:59:21.467Z,80.24
2022-10-13T11:00:23.685Z,80.27
2022-10-13T11:01:21.697Z,79.87
2022-10-13T11:02:22.273Z,79.26
2022-10-13T11:03:23.003Z,79.06
2022-10-13T11:04:22.113Z,79.06
2022-10-13T11:05:22.212Z,78.25
2022-10-13T11:06:23.383Z,79.26
2022-10-13T11:07:21.435Z,78.66
2022-10-13T11:08:21.504Z,79.97
2022-10-13T11:09:22.958Z,80.44
2022-10-13T11:10:23.846Z,80.94
2022-10-13T11:11:24.930Z,80.94
2022-10-13T11:12:22.497Z,81.15
2022-10-13T11:13:21.116Z,81.45
2022-10-13T11:14:21.256Z,80.34
2022-10-13T11:15:21.450Z,80.04
2022-10-13T11:16:23.503Z,80.34
2022-10-13T11:17:25.744Z,79.53
2022-10-13T11:18:22.020Z,79.53
2022-10-13T11:19:22.950Z,80.50
2022-10-13T11:20:20.987Z,80.60
2022-10-13T11:21:21.651Z,79.83
2022-10-13T11:22:21.808Z,80.74
2022-10-13T11:23:48.400Z,80.84
2022-10-13T11:24:20.579Z,80.84
2022-10-13T11:25:21.714Z,79.43
2022-10-13T11:26:20.841Z,79.63
2022-10-13T11:27:21.171Z,78.21
2022-10-13T11:28:21.175Z,77.71
2022-10-13T11:29:21.364Z,79.73
2022-10-13T11:30:22.529Z,79.53
2022-10-13T11:31:21.629Z,79.83
2022-10-13T11:32:21.068Z,80.24
2022-10-13T11:33:22.050Z,80.34
2022-10-13T11:34:22.808Z,79.63
2022-10-13T11:35:22.375Z,79.63
2022-10-13T11:36:20.439Z,79.02
2022-10-13T11:37:20.588Z,79.02
2022-10-13T11:38:20.829Z,80.24
2022-10-13T11:39:21.994Z,79.73
2022-10-13T11:40:21.076Z,79.53
2022-10-13T11:41:21.229Z,77.91
2022-10-13T11:42:22.608Z,78.01
2022-10-13T11:43:20.445Z,78.31
2022-10-13T11:44:20.642Z,78.35
2022-10-13T11:45:20.830Z,77.44
2022-10-13T11:46:20.925Z,78.75
2022-10-13T11:47:21.351Z,77.84
2022-10-13T11:48:23.223Z,77.95
2022-10-13T11:49:21.383Z,78.05
2022-10-13T11:50:21.613Z,77.54
2022-10-13T11:51:20.684Z,76.93
2022-10-13T11:52:21.267Z,78.35
2022-10-13T11:54:00.396Z,77.75
2022-10-13T11:54:20.117Z,77.84
2022-10-13T11:55:20.266Z,79.06
2022-10-13T11:56:21.719Z,79.02
2022-10-13T11:57:21.691Z,79.63
2022-10-13T11:58:20.638Z,78.72
2022-10-13T11:59:20.798Z,78.01
2022-10-13T12:00:20.920Z,78.78
2022-10-13T12:01:21.042Z,77.17
2022-10-13T12:02:20.645Z,77.06
2022-10-13T12:03:21.368Z,77.77
2022-10-13T12:04:21.494Z,78.48
2022-10-13T12:05:20.613Z,76.35
2022-10-13T12:06:35.256Z,77.57
2022-10-13T12:07:21.949Z,76.46
2022-10-13T12:08:21.004Z,77.03
2022-10-13T12:09:20.117Z,77.13
2022-10-13T12:10:22.316Z,75.51
2022-10-13T12:11:21.450Z,76.12
2022-10-13T12:12:20.923Z,76.39
2022-10-13T12:13:20.793Z,75.27
2022-10-13T12:14:21.875Z,73.05
2022-10-13T12:15:20.987Z,72.99
2022-10-13T12:16:20.130Z,73.69
2022-10-13T12:17:23.686Z,75.01
2022-10-13T12:18:21.499Z,74.50
2022-10-13T12:19:20.604Z,73.79
2022-10-13T12:20:21.730Z,74.40
2022-10-13T12:21:21.861Z,74.80
2022-10-13T12:22:22.949Z,74.23
2022-10-13T12:23:23.644Z,74.54
2022-10-13T12:24:21.273Z,73.43
2022-10-13T12:25:22.468Z,74.23
2022-10-13T12:26:20.501Z,74.63
2022-10-13T12:27:19.869Z,74.74
2022-10-13T12:28:21.877Z,75.55
2022-10-13T12:29:20.115Z,75.14
2022-10-13T12:30:22.157Z,75.85
2022-10-13T12:31:22.328Z,74.63
2022-10-13T12:32:21.424Z,75.45
2022-10-13T12:33:20.522Z,75.75
2022-10-13T12:35:10.524Z,75.58
2022-10-13T12:35:19.750Z,75.28
2022-10-13T12:36:22.033Z,75.68
2022-10-13T12:37:21.430Z,76.19
2022-10-13T12:38:20.188Z,76.50
2022-10-13T12:39:20.349Z,75.48
2022-10-13T12:40:20.547Z,76.29
2022-10-13T12:41:19.591Z,76.29
2022-10-13T12:42:20.785Z,75.89
2022-10-13T12:43:19.890Z,76.50
2022-10-13T12:44:20.109Z,75.89
2022-10-13T12:45:20.222Z,75.28
2022-10-13T12:46:20.439Z,75.18
2022-10-13T12:47:19.871Z,75.28
2022-10-13T12:48:19.615Z,75.79
2022-10-13T12:50:20.921Z,75.38
2022-10-13T12:51:22.153Z,75.99
2022-10-13T12:52:21.497Z,76.59
2022-10-13T12:53:20.246Z,76.26
2022-10-13T12:54:22.470Z,75.28
2022-10-13T12:55:20.522Z,74.77